Granville, Indiana
Current Conditions -  °F | °C
As of 3:53 PM on Tuesday 21 Oct 2014 (Local Time) from KMIE Reporting Station
Broken Clouds Broken Clouds  
Wind Chill: 55°   Ceiling: 4400
Heat Index: 55°   Visibility: 10mi
Dew Point: 42°   Wind: 14mph
Humidity: 62%   Direction: 10°N
Pressure: 30.09"   Gusts: NA
Location:  40.3453°N, 85.3353°W
Report Text: KMIE 211953Z 01012KT 10SM SCT035 BKN044 BKN055 13/06 A3009 RMK AO2 SLP185 T01280056
Loading
Personal Weather Stations






























Interactive Weather Map New forecast layout! Learn more

10-Day Weather Forecast

Advertisements
Track Severe Weather on mobile